This is the latest recevied weather packets stored in our database for station/object SV9TNF-2. If no packets are shown the sender has not sent any weather packets the latest 10 day(s).
| Time | Temp. | Humidity | Pressure | Rain* | Wind** | Luminosity | Snow |
|---|---|---|---|---|---|---|---|
| 1777785535 | 13.33° C | 64% | 1021.7 hPa | 0 mm | 8.94 m/s, 73° | - | - |
| 1777785235 | 13.33° C | 61% | 1021.7 hPa | 0 mm | 8.49 m/s, 353° | - | - |
| 1777784935 | 13.33° C | 59% | 1021 hPa | 0 mm | 10.28 m/s, 165° | - | - |
| 1777784635 | 13.33° C | 58% | 1021 hPa | 0 mm | 18.33 m/s, 49° | - | - |
| 1777784335 | 13.33° C | 59% | 1021 hPa | 0 mm | 22.35 m/s, 356° | - | - |
| 1777784035 | 13.33° C | 61% | 1021 hPa | 0 mm | 29.06 m/s, 20° | - | - |
| 1777783735 | 13.33° C | 65% | 1021 hPa | 0 mm | 23.69 m/s, 56° | - | - |
| 1777777266 | 11.67° C | 66% | 1020.3 hPa | 0 mm | 11.18 m/s, 342° | - | - |
| 1777776966 | 11.67° C | 67% | 1020 hPa | 0 mm | 27.72 m/s, 101° | - | - |
| 1777776666 | 12.78° C | 68% | 1020 hPa | 0 mm | 33.98 m/s, 104° | - | - |
| 1777776366 | 12.22° C | 67% | 1020 hPa | 1.27 mm | 21.01 m/s, 342° | - | - |
| 1777776066 | 12.78° C | 67% | 1020 hPa | 1.27 mm | 19.67 m/s, 279° | - | - |
| 1777775766 | 13.89° C | 60% | 1020 hPa | 0 mm | 14.31 m/s, 215° | - | - |
| 1777775465 | 13.89° C | 58% | 1020 hPa | 0 mm | 24.59 m/s, 312° | - | - |
| 1777775165 | 13.89° C | 62% | 1020 hPa | 0 mm | 33.98 m/s, 8° | - | - |
| 1777774865 | 13.89° C | 59% | 1020 hPa | 0 mm | 41.13 m/s, 10° | - | - |
| 1777774565 | 13.89° C | 66% | 1020 hPa | 0 mm | 29.5 m/s, 346° | - | - |
| 1777774265 | 13.33° C | 66% | 1020 hPa | 0 mm | 29.5 m/s, 25° | - | - |
| 1777773965 | 13.33° C | 62% | 1020 hPa | 1.27 mm | 12.96 m/s, 123° | - | - |
| 1777773665 | 12.78° C | 64% | 1020 hPa | 1.27 mm | 15.65 m/s, 84° | - | - |
| 1777773365 | 13.33° C | 63% | 1020 hPa | 0 mm | 16.09 m/s, 156° | - | - |
| 1777773064 | 13.33° C | 59% | 1020 hPa | 0 mm | 33.98 m/s, 11° | - | - |
| 1777772765 | 14.44° C | 57% | 1020 hPa | 0 mm | 18.78 m/s, 39° | - | - |
| 1777772465 | 14.44° C | 55% | 1020 hPa | 0 mm | 19.67 m/s, 31° | - | - |
| 1777772165 | 14.44° C | 55% | 1020 hPa | 0 mm | 16.54 m/s, 88° | - | - |
* Rain latest hour (hover to see other rain measurements)
** Current wind speed in m/s (hover to see current wind gust speed)